Time;durP1;ratioP1;P1;durP2;ratioP2;P2;SDS_P1;SDS_P2;PMS_P1;PMS_P2;Temp;Humidity;BMP_temperature;BMP_pressure;BME280_temperature;BME280_humidity;BME280_pressure;Samples;Min_cycle;Max_cycle;Signal;HPM_P1;HPM_P2
2022/12/09 00:02:10;;;;;;;53.25;32.53;;;;;;;4.72;100.00;99947.56;5088585;28;20427;-74
2022/12/09 00:04:35;;;;;;;50.67;31.98;;;;;;;4.65;100.00;99934.81;5090999;28;20062;-74
2022/12/09 00:07:01;;;;;;;49.28;31.48;;;;;;;4.68;100.00;99934.59;5090924;28;20028;-74
2022/12/09 00:09:26;;;;;;;47.92;30.30;;;;;;;4.69;100.00;99930.97;5106619;28;20094;-73
2022/12/09 00:11:52;;;;;;;51.30;31.35;;;;;;;4.63;100.00;99905.72;5111288;27;20098;-74
2022/12/09 00:14:17;;;;;;;53.25;31.15;;;;;;;4.91;100.00;99951.56;5111245;28;20032;-75
2022/12/09 00:16:46;;;;;;;50.55;31.00;;;;;;;4.89;100.00;99949.03;5109848;28;20028;-74
2022/12/09 00:19:11;;;;;;;50.40;31.27;;;;;;;4.72;100.00;99926.31;5094437;28;20032;-74
2022/12/09 00:21:37;;;;;;;49.83;30.50;;;;;;;4.78;100.00;99945.44;5094390;28;20042;-73
2022/12/09 00:24:05;;;;;;;51.78;31.45;;;;;;;4.96;100.00;99970.72;5094448;28;20032;-74
2022/12/09 00:26:32;;;;;;;51.60;30.45;;;;;;;4.98;100.00;99971.44;5094069;28;20020;-74
2022/12/09 00:28:58;;;;;;;49.20;30.48;;;;;;;4.97;100.00;99965.28;5094425;28;20027;-73
2022/12/09 00:31:26;;;;;;;53.72;29.67;;;;;;;4.97;100.00;99967.94;5094296;28;20735;-74
2022/12/09 00:33:55;;;;;;;53.00;30.83;;;;;;;4.88;100.00;99944.69;5094337;28;20404;-73
2022/12/09 00:36:22;;;;;;;46.45;28.52;;;;;;;5.01;100.00;99963.25;5092806;28;20138;-74
2022/12/09 00:38:49;;;;;;;51.88;30.23;;;;;;;5.01;100.00;99966.75;5093257;28;20485;-74
2022/12/09 00:41:16;;;;;;;50.20;31.95;;;;;;;5.05;100.00;99985.97;5099671;28;20377;-74
2022/12/09 00:43:42;;;;;;;48.63;30.80;;;;;;;4.95;100.00;99969.84;5109188;28;20429;-73
2022/12/09 00:46:08;;;;;;;48.30;29.08;;;;;;;5.06;100.00;99985.88;5111796;28;20052;-73
2022/12/09 00:48:34;;;;;;;48.78;30.48;;;;;;;5.02;100.00;99973.78;5093915;28;20512;-74
2022/12/09 00:51:00;;;;;;;54.45;31.50;;;;;;;5.05;100.00;99976.22;5093967;28;20063;-73
2022/12/09 00:53:26;;;;;;;52.30;31.38;;;;;;;5.05;100.00;99973.56;5104707;28;20087;-73
2022/12/09 00:55:52;;;;;;;50.92;32.50;;;;;;;4.96;100.00;99960.91;5114554;28;20023;-74
2022/12/09 00:58:17;;;;;;;57.90;31.15;;;;;;;5.07;100.00;99978.75;5104205;28;20090;-73
2022/12/09 01:00:43;;;;;;;51.85;31.50;;;;;;;5.09;100.00;99975.03;5113521;28;20011;-73
2022/12/09 01:03:15;;;;;;;52.15;31.77;;;;;;;5.06;100.00;99972.59;5113587;28;20038;-74
2022/12/09 01:05:41;;;;;;;48.30;29.92;;;;;;;5.10;100.00;99965.25;5102817;28;20109;-73
2022/12/09 01:08:07;;;;;;;52.85;30.40;;;;;;;5.12;100.00;99969.50;5093781;28;20086;-73
2022/12/09 01:10:34;;;;;;;51.88;30.55;;;;;;;5.12;100.00;99958.03;5096873;28;20478;-73
2022/12/09 01:12:59;;;;;;;51.45;30.00;;;;;;;5.09;100.00;99951.13;5112441;28;20024;-73
2022/12/09 01:15:24;;;;;;;48.63;30.65;;;;;;;5.12;100.00;99953.56;5113170;28;20024;-73
2022/12/09 01:17:50;;;;;;;52.38;29.77;;;;;;;5.13;100.00;99947.31;5113836;28;20027;-73
2022/12/09 01:20:15;;;;;;;50.95;30.80;;;;;;;5.17;100.00;99967.38;5101766;28;20093;-73
2022/12/09 01:22:41;;;;;;;47.03;29.15;;;;;;;5.20;100.00;99960.97;5093838;28;20055;-73
2022/12/09 01:25:07;;;;;;;48.25;28.83;;;;;;;5.07;100.00;99945.06;5093811;28;20448;-73
2022/12/09 01:27:32;;;;;;;48.03;28.55;;;;;;;5.11;100.00;99943.03;5092010;28;20028;-73
2022/12/09 01:29:58;;;;;;;49.15;29.00;;;;;;;5.10;100.00;99942.19;5092916;28;20019;-73
2022/12/09 01:32:23;;;;;;;52.22;29.30;;;;;;;5.18;100.00;99955.78;5093010;28;20205;-73
2022/12/09 01:34:49;;;;;;;50.00;28.42;;;;;;;5.23;100.00;99953.66;5091715;28;20056;-74
2022/12/09 01:37:14;;;;;;;48.83;29.23;;;;;;;5.24;100.00;99957.13;5107984;28;20039;-74
2022/12/09 01:39:40;;;;;;;46.83;29.17;;;;;;;5.23;100.00;99958.97;5109315;28;20420;-74
2022/12/09 01:42:16;;;;;;;48.15;29.48;;;;;;;5.03;100.00;99914.34;5093858;28;20032;-73
2022/12/09 01:45:17;;;;;;;44.42;28.65;;;;;;;5.27;100.00;99951.59;5101402;28;20043;-73
2022/12/09 01:47:42;;;;;;;47.10;28.95;;;;;;;5.09;100.00;99929.03;5113012;28;20035;-73
2022/12/09 01:50:08;;;;;;;48.63;28.95;;;;;;;5.30;100.00;99946.94;5093115;28;20036;-73
2022/12/09 01:52:33;;;;;;;53.08;30.65;;;;;;;5.11;100.00;99919.09;5092647;28;20032;-73
2022/12/09 01:54:58;;;;;;;47.65;28.67;;;;;;;5.30;100.00;99944.28;5105884;28;20028;-73
2022/12/09 01:57:24;;;;;;;51.63;30.30;;;;;;;5.31;100.00;99945.09;5111336;28;20028;-73
2022/12/09 01:59:51;;;;;;;51.35;29.48;;;;;;;5.27;100.00;99948.94;5111236;28;20024;-73
2022/12/09 02:02:18;;;;;;;50.67;28.73;;;;;;;5.26;100.00;99948.13;5110612;28;20054;-73
2022/12/09 02:04:48;;;;;;;50.70;29.15;;;;;;;5.27;100.00;99944.50;5097972;28;20036;-73
2022/12/09 02:07:14;;;;;;;45.80;28.55;;;;;;;5.28;100.00;99935.53;5094288;28;20036;-73
2022/12/09 02:09:41;;;;;;;48.30;29.20;;;;;;;5.23;100.00;99927.06;5106307;28;20534;-74
2022/12/09 02:12:14;;;;;;;45.70;28.23;;;;;;;5.33;100.00;99938.72;5092620;28;20024;-73
2022/12/09 02:14:54;;;;;;;52.20;30.35;;;;;;;5.33;100.00;99933.41;5096975;28;20626;-73
2022/12/09 02:17:26;;;;;;;47.38;28.98;;;;;;;5.33;100.00;99932.56;5092540;28;20392;-73
2022/12/09 02:20:00;;;;;;;50.92;30.13;;;;;;;5.35;100.00;99946.59;5097260;28;20103;-73
2022/12/09 02:22:36;;;;;;;;;;;;;;;5.34;100.00;99931.59;5091487;28;20040;-74
2022/12/09 02:25:24;;;;;;;48.63;27.48;;;;;;;5.18;100.00;99897.31;5098145;28;19908;-74
2022/12/09 02:28:18;;;;;;;52.63;29.15;;;;;;;5.35;100.00;99931.47;5108507;28;20053;-73
2022/12/09 02:31:03;;;;;;;53.60;28.80;;;;;;;5.35;100.00;99918.19;5080361;28;20231;-73
2022/12/09 02:33:55;;;;;;;49.90;29.23;;;;;;;5.40;100.00;99924.03;5104965;28;20043;-73
2022/12/09 02:36:24;;;;;;;51.63;29.95;;;;;;;5.32;100.00;99920.22;5099777;28;20024;-73
2022/12/09 02:38:51;;;;;;;54.42;31.38;;;;;;;5.39;100.00;99929.47;5102192;28;20032;-73
2022/12/09 02:41:28;;;;;;;59.33;34.05;;;;;;;5.27;100.00;99912.59;5098883;28;20123;-73
2022/12/09 02:44:04;;;;;;;63.80;36.50;;;;;;;5.36;100.00;99927.88;5108085;28;20469;-74
2022/12/09 02:46:31;;;;;;;62.47;36.10;;;;;;;5.37;100.00;99929.56;5091839;28;20027;-73
2022/12/09 02:48:58;;;;;;;57.45;33.78;;;;;;;5.41;100.00;99935.50;5090338;28;20415;-74
2022/12/09 02:51:27;;;;;;;56.88;32.63;;;;;;;5.44;100.00;99930.81;5090664;28;20040;-74
2022/12/09 02:53:58;;;;;;;53.97;33.25;;;;;;;5.43;100.00;99928.25;5092038;28;20023;-73
2022/12/09 02:56:24;;;;;;;49.55;31.52;;;;;;;5.37;100.00;99912.75;5091805;28;20023;-73
2022/12/09 02:58:49;;;;;;;52.60;32.03;;;;;;;5.35;100.00;99909.38;5090856;28;20047;-73
2022/12/09 03:01:23;;;;;;;55.67;31.90;;;;;;;5.36;100.00;99909.28;5091761;28;20024;-73
2022/12/09 03:03:51;;;;;;;51.80;30.05;;;;;;;5.32;100.00;99907.78;5111804;28;20036;-73
2022/12/09 03:06:18;;;;;;;54.47;30.92;;;;;;;5.49;100.00;99931.34;5094172;28;20069;-73
2022/12/09 03:09:13;;;;;;;53.58;32.13;;;;;;;5.48;100.00;99932.28;5106859;28;20434;-73
2022/12/09 03:11:40;;;;;;;48.08;30.45;;;;;;;5.42;100.00;99911.44;5091533;28;20520;-74
2022/12/09 03:14:28;;;;;;;50.92;31.45;;;;;;;5.48;100.00;99926.97;5093999;28;20471;-73
2022/12/09 03:17:20;;;;;;;52.53;30.17;;;;;;;5.47;100.00;99916.44;5067716;28;20031;-73
2022/12/09 03:19:48;;;;;;;52.08;30.90;;;;;;;5.52;100.00;99920.47;5089719;28;20041;-73
2022/12/09 03:22:17;;;;;;;50.63;30.15;;;;;;;5.46;100.00;99907.63;5109431;28;20080;-73
2022/12/09 03:24:56;;;;;;;49.38;30.55;;;;;;;5.52;100.00;99916.97;5103139;28;20050;-73
2022/12/09 03:27:27;;;;;;;51.35;30.77;;;;;;;5.54;100.00;99923.00;5101602;28;20045;-73
2022/12/09 03:29:55;;;;;;;47.92;27.70;;;;;;;5.52;100.00;99901.00;5088691;28;20018;-73
2022/12/09 03:32:24;;;;;;;48.17;28.33;;;;;;;5.53;100.00;99900.88;5088884;28;20536;-73
2022/12/09 03:34:53;;;;;;;47.00;28.48;;;;;;;5.53;100.00;99902.69;5100138;28;20023;-73
2022/12/09 03:37:20;;;;;;;49.90;29.15;;;;;;;5.56;100.00;99916.63;5109556;28;20035;-73
2022/12/09 03:39:48;;;;;;;50.50;30.45;;;;;;;5.53;100.00;99903.56;5105490;28;20534;-74
2022/12/09 03:42:21;;;;;;;53.80;29.85;;;;;;;5.47;100.00;99890.69;5088460;28;20073;-73
2022/12/09 03:44:49;;;;;;;47.65;28.48;;;;;;;5.56;100.00;99907.78;5094077;28;20051;-73
2022/12/09 03:47:15;;;;;;;50.05;29.65;;;;;;;5.55;100.00;99898.94;5108823;28;20452;-73
2022/12/09 03:49:40;;;;;;;48.28;28.80;;;;;;;5.54;100.00;99893.75;5108581;28;20027;-73
2022/12/09 03:52:17;;;;;;;47.97;29.15;;;;;;;5.60;100.00;99902.13;5088540;28;20028;-73
2022/12/09 03:54:49;;;;;;;47.50;28.27;;;;;;;5.58;100.00;99901.38;5088574;28;20023;-73
2022/12/09 03:57:17;;;;;;;47.80;28.50;;;;;;;5.60;100.00;99899.47;5090174;28;20050;-73
2022/12/09 03:59:50;;;;;;;47.95;28.10;;;;;;;5.63;100.00;99903.72;5106677;28;20039;-73
2022/12/09 04:02:15;;;;;;;45.92;27.88;;;;;;;5.56;100.00;99898.00;5107064;28;20488;-73
2022/12/09 04:04:41;;;;;;;51.60;29.98;;;;;;;5.48;100.00;99891.56;5106376;28;20076;-73
2022/12/09 04:07:08;;;;;;;44.80;28.48;;;;;;;5.62;100.00;99929.47;5102868;28;20038;-73
2022/12/09 04:09:33;;;;;;;45.60;28.65;;;;;;;5.64;100.00;99924.88;5095091;28;20038;-73
2022/12/09 04:11:59;;;;;;;49.35;30.08;;;;;;;5.64;100.00;99914.22;5103212;28;20027;-74
2022/12/09 04:14:24;;;;;;;44.40;28.10;;;;;;;5.60;100.00;99906.59;5096679;28;20110;-73
2022/12/09 04:16:50;;;;;;;46.72;28.27;;;;;;;5.56;100.00;99891.81;5107528;28;20019;-73
2022/12/09 04:19:15;;;;;;;46.63;27.02;;;;;;;5.68;100.00;99917.53;5102868;28;20022;-73
2022/12/09 04:21:41;;;;;;;47.72;29.42;;;;;;;5.68;100.00;99913.03;5091634;28;20032;-73
2022/12/09 04:24:07;;;;;;;48.90;27.98;;;;;;;5.72;100.00;99916.34;5102331;28;20028;-73
2022/12/09 04:26:33;;;;;;;49.30;28.35;;;;;;;5.71;100.00;99918.13;5097410;28;20480;-73
2022/12/09 04:28:59;;;;;;;46.05;26.92;;;;;;;5.69;100.00;99917.41;5088932;28;20098;-73
2022/12/09 04:31:25;;;;;;;47.00;29.38;;;;;;;5.64;100.00;99905.44;5097592;28;20028;-74
2022/12/09 04:33:50;;;;;;;47.13;28.50;;;;;;;5.72;100.00;99913.66;5102129;28;20518;-74
2022/12/09 04:36:17;;;;;;;45.83;27.98;;;;;;;5.77;100.00;99922.19;5094656;28;20027;-74
2022/12/09 04:38:43;;;;;;;51.47;29.20;;;;;;;5.74;100.00;99920.56;5096153;28;20468;-74
2022/12/09 04:41:09;;;;;;;47.03;28.63;;;;;;;5.75;100.00;99924.94;5088438;28;20446;-73
2022/12/09 04:43:35;;;;;;;45.10;29.15;;;;;;;5.76;100.00;99910.66;5090287;28;20067;-74
2022/12/09 04:46:03;;;;;;;48.00;28.35;;;;;;;5.71;100.00;99896.84;5101729;28;20044;-73
2022/12/09 04:48:29;;;;;;;43.47;27.98;;;;;;;5.79;100.00;99915.75;5091527;28;20016;-74
2022/12/09 04:50:54;;;;;;;47.50;28.48;;;;;;;5.77;100.00;99901.72;5108286;28;20032;-74
2022/12/09 04:53:20;;;;;;;45.80;27.80;;;;;;;5.76;100.00;99897.38;5100775;28;20040;-74
2022/12/09 04:55:46;;;;;;;39.83;26.05;;;;;;;5.83;100.00;99911.94;5102259;28;20100;-74
2022/12/09 04:58:11;;;;;;;45.45;27.08;;;;;;;5.85;100.00;99925.13;5107194;28;20076;-74
2022/12/09 05:00:36;;;;;;;45.17;27.27;;;;;;;5.85;100.00;99915.34;5088162;28;20026;-73
2022/12/09 05:03:02;;;;;;;44.35;26.88;;;;;;;5.86;100.00;99909.03;5087997;28;20027;-73
2022/12/09 05:05:28;;;;;;;43.38;24.60;;;;;;;5.89;100.00;99908.81;5100620;28;20074;-74
2022/12/09 05:07:53;;;;;;;44.60;26.08;;;;;;;5.87;100.00;99899.28;5112163;28;20105;-74
2022/12/09 05:10:19;;;;;;;48.45;28.83;;;;;;;5.88;100.00;99890.31;5103306;28;20475;-74
2022/12/09 05:12:44;;;;;;;48.47;27.83;;;;;;;5.89;100.00;99890.19;5111869;28;20075;-73
2022/12/09 05:15:10;;;;;;;45.08;27.02;;;;;;;5.77;100.00;99859.16;5096529;28;20070;-73
2022/12/09 05:17:35;;;;;;;48.80;28.52;;;;;;;5.70;100.00;99849.94;5102401;28;20223;-74
2022/12/09 05:20:02;;;;;;;47.33;26.85;;;;;;;5.83;100.00;99880.00;5095545;28;20046;-74
2022/12/09 05:22:27;;;;;;;47.85;28.52;;;;;;;5.90;100.00;99894.53;5091337;28;20103;-74
2022/12/09 05:24:53;;;;;;;47.63;29.80;;;;;;;5.78;100.00;99860.88;5104346;28;20476;-74
2022/12/09 05:27:18;;;;;;;54.42;29.88;;;;;;;5.78;100.00;99850.22;5112295;28;20031;-69
2022/12/09 05:29:44;;;;;;;50.10;28.30;;;;;;;5.77;100.00;99855.66;5100374;28;20027;-69
2022/12/09 05:32:09;;;;;;;48.55;28.50;;;;;;;5.81;100.00;99859.78;5105771;28;20019;-69
2022/12/09 05:34:34;;;;;;;46.20;27.17;;;;;;;5.78;100.00;99849.38;5094078;28;20028;-69
2022/12/09 05:37:00;;;;;;;54.72;30.33;;;;;;;5.84;100.00;99868.38;5109814;28;20039;-69
2022/12/09 05:39:25;;;;;;;51.67;30.45;;;;;;;5.80;100.00;99868.72;5101464;28;20036;-74
2022/12/09 05:41:51;;;;;;;54.70;31.15;;;;;;;5.73;100.00;99860.34;5102966;28;20058;-74
2022/12/09 05:44:16;;;;;;;51.95;30.38;;;;;;;5.90;100.00;99889.22;5111454;28;20403;-74
2022/12/09 05:46:42;;;;;;;48.70;30.10;;;;;;;5.91;100.00;99893.59;5110797;28;20024;-74
2022/12/09 05:49:07;;;;;;;52.50;30.17;;;;;;;5.88;100.00;99890.31;5097840;28;20027;-74
2022/12/09 05:51:33;;;;;;;54.05;30.85;;;;;;;5.71;100.00;99856.94;5108943;28;20030;-75
2022/12/09 05:54:03;;;;;;;51.90;30.95;;;;;;;5.90;100.00;99885.72;5105318;28;20486;-74
2022/12/09 05:56:29;;;;;;;63.13;31.90;;;;;;;5.89;100.00;99884.88;5090669;28;20042;-75
2022/12/09 05:58:55;;;;;;;49.60;29.30;;;;;;;5.90;100.00;99888.38;5071680;28;20036;-75
2022/12/09 06:01:22;;;;;;;56.63;33.63;;;;;;;5.89;100.00;99887.53;5080530;28;20035;-75
2022/12/09 06:03:49;;;;;;;57.70;34.08;;;;;;;5.84;100.00;99868.38;5083655;28;20024;-74
2022/12/09 06:06:17;;;;;;;58.33;32.67;;;;;;;5.86;100.00;99868.28;5090699;28;20132;-69
2022/12/09 06:08:44;;;;;;;61.22;33.88;;;;;;;5.92;100.00;99867.81;5090061;28;20129;-69
2022/12/09 06:11:20;;;;;;;58.25;33.60;;;;;;;5.93;100.00;99869.53;5101301;28;20296;-74
2022/12/09 06:13:46;;;;;;;59.50;32.63;;;;;;;5.92;100.00;99863.34;5098107;27;20036;-74
2022/12/09 06:16:13;;;;;;;63.95;35.45;;;;;;;5.91;100.00;99852.81;5101070;28;20106;-74
2022/12/09 06:18:39;;;;;;;54.22;30.67;;;;;;;5.76;100.00;99825.53;5090946;28;20032;-74
2022/12/09 06:21:07;;;;;;;60.65;33.40;;;;;;;5.93;100.00;99864.22;5090226;28;20451;-74
2022/12/09 06:23:35;;;;;;;57.53;32.25;;;;;;;5.90;100.00;99857.28;5101200;28;20027;-74
2022/12/09 06:26:01;;;;;;;55.60;31.55;;;;;;;5.92;100.00;99862.50;5094403;28;20063;-74
2022/12/09 06:28:26;;;;;;;55.30;31.75;;;;;;;5.92;100.00;99858.03;5104610;28;20489;-74
2022/12/09 06:30:52;;;;;;;58.35;29.10;;;;;;;5.81;100.00;99838.50;5098843;28;20181;-74
2022/12/09 06:33:17;;;;;;;54.38;30.33;;;;;;;5.81;100.00;99836.69;5108238;28;20032;-74
2022/12/09 06:35:43;;;;;;;55.30;30.73;;;;;;;5.82;100.00;99845.53;5101143;28;20023;-74
2022/12/09 06:38:08;;;;;;;52.30;29.73;;;;;;;5.81;100.00;99843.81;5088765;28;20047;-74
2022/12/09 06:40:34;;;;;;;54.05;30.30;;;;;;;5.95;100.00;99862.25;5105221;28;20036;-74
2022/12/09 06:42:59;;;;;;;56.80;30.85;;;;;;;5.93;100.00;99870.38;5103562;28;20024;-74
2022/12/09 06:45:25;;;;;;;55.13;30.40;;;;;;;5.92;100.00;99866.00;5091690;28;20055;-75
2022/12/09 06:47:50;;;;;;;56.50;31.35;;;;;;;5.91;100.00;99867.00;5089373;28;20396;-74
2022/12/09 06:50:17;;;;;;;57.60;32.28;;;;;;;5.94;100.00;99866.72;5106487;28;20412;-74
2022/12/09 06:52:42;;;;;;;55.60;31.48;;;;;;;5.88;100.00;99863.69;5104418;28;20031;-74
2022/12/09 06:55:08;;;;;;;58.72;34.65;;;;;;;5.91;100.00;99871.44;5109898;28;20028;-74
2022/12/09 06:57:34;;;;;;;59.55;33.33;;;;;;;5.91;100.00;99877.63;5095253;28;20115;-75
2022/12/09 07:00:00;;;;;;;55.97;31.50;;;;;;;5.93;100.00;99875.69;5089382;28;20392;-74
2022/12/09 07:02:25;;;;;;;59.25;31.73;;;;;;;5.92;100.00;99862.50;5088985;28;20111;-74
2022/12/09 07:04:52;;;;;;;58.33;33.10;;;;;;;5.94;100.00;99864.06;5089146;28;20551;-74
2022/12/09 07:07:18;;;;;;;60.67;32.75;;;;;;;5.96;100.00;99875.44;5089394;28;20028;-74
2022/12/09 07:09:43;;;;;;;65.22;32.85;;;;;;;5.94;100.00;99866.72;5091227;28;20050;-74
2022/12/09 07:12:09;;;;;;;58.40;33.58;;;;;;;5.95;100.00;99868.44;5109384;28;20418;-74
2022/12/09 07:14:35;;;;;;;56.60;31.35;;;;;;;5.95;100.00;99864.91;5107517;28;20027;-74
2022/12/09 07:17:01;;;;;;;54.25;31.42;;;;;;;5.84;100.00;99831.13;5099154;28;20026;-74
2022/12/09 07:19:26;;;;;;;64.82;32.67;;;;;;;5.98;100.00;99846.91;5103671;28;20027;-74
2022/12/09 07:21:53;;;;;;;54.42;30.58;;;;;;;5.94;100.00;99836.63;5108494;28;20288;-74
2022/12/09 07:24:19;;;;;;;63.40;31.40;;;;;;;5.98;100.00;99854.03;5099319;28;20108;-74
2022/12/09 07:26:44;;;;;;;64.90;33.63;;;;;;;5.99;100.00;99840.63;5087363;28;20499;-74
2022/12/09 07:29:10;;;;;;;66.20;33.25;;;;;;;5.99;100.00;99848.59;5088090;28;20028;-74
2022/12/09 07:31:35;;;;;;;62.28;32.17;;;;;;;5.98;100.00;99840.75;5098853;28;20035;-74
2022/12/09 07:34:01;;;;;;;69.75;33.53;;;;;;;5.97;100.00;99841.72;5099943;28;20026;-74
2022/12/09 07:36:29;;;;;;;71.93;35.30;;;;;;;5.76;100.00;99804.25;5098085;28;20114;-74
2022/12/09 07:38:59;;;;;;;65.82;34.58;;;;;;;5.96;100.00;99826.69;5106398;28;20464;-75
2022/12/09 07:41:25;;;;;;;70.80;31.80;;;;;;;5.99;100.00;99813.16;5090142;28;20040;-74
2022/12/09 07:43:52;;;;;;;70.13;33.67;;;;;;;5.95;100.00;99809.91;5102595;28;20041;-74
2022/12/09 07:46:19;;;;;;;64.35;31.02;;;;;;;6.01;100.00;99821.88;5089698;28;20048;-75
2022/12/09 07:48:45;;;;;;;67.55;32.05;;;;;;;6.00;100.00;99829.00;5093346;28;20024;-74
2022/12/09 07:51:11;;;;;;;67.55;29.17;;;;;;;5.94;100.00;99802.84;5097216;28;20171;-74
2022/12/09 07:53:37;;;;;;;58.63;28.77;;;;;;;5.99;100.00;99800.69;5077580;28;20031;-74
2022/12/09 07:56:05;;;;;;;56.65;28.10;;;;;;;5.97;100.00;99786.66;5103895;28;20470;-74
2022/12/09 07:58:31;;;;;;;58.95;27.65;;;;;;;6.03;100.00;99785.34;5110105;28;20038;-74
2022/12/09 08:00:56;;;;;;;63.75;28.05;;;;;;;6.00;100.00;99791.75;5090187;28;20024;-74
2022/12/09 08:03:22;;;;;;;63.30;27.50;;;;;;;5.99;100.00;99794.53;5091367;28;20036;-74
2022/12/09 08:05:51;;;;;;;54.92;24.80;;;;;;;6.01;100.00;99803.25;5108943;28;20114;-74
2022/12/09 08:08:17;;;;;;;57.08;25.13;;;;;;;5.88;100.00;99774.09;5106193;28;20020;-70
2022/12/09 08:10:43;;;;;;;52.95;23.15;;;;;;;5.92;100.00;99790.63;5094785;28;20144;-69
2022/12/09 08:13:09;;;;;;;48.83;22.08;;;;;;;6.01;100.00;99813.88;5107820;28;20039;-70
2022/12/09 08:15:35;;;;;;;49.15;22.73;;;;;;;5.91;100.00;99794.28;5095351;28;20032;-69
2022/12/09 08:18:01;;;;;;;48.92;22.23;;;;;;;5.97;100.00;99794.63;5102131;28;20032;-70
2022/12/09 08:20:27;;;;;;;51.45;22.77;;;;;;;5.94;100.00;99784.22;5089470;28;20016;-69
2022/12/09 08:22:52;;;;;;;46.38;20.42;;;;;;;5.96;100.00;99766.34;5101958;28;20034;-69
2022/12/09 08:25:17;;;;;;;45.67;20.17;;;;;;;6.06;100.00;99769.97;5088697;28;20026;-70
2022/12/09 08:27:43;;;;;;;40.90;19.90;;;;;;;5.97;100.00;99749.38;5078643;28;20036;-69
2022/12/09 08:30:09;;;;;;;42.38;19.58;;;;;;;6.09;100.00;99783.03;5087510;28;20035;-70
2022/12/09 08:32:34;;;;;;;43.10;20.85;;;;;;;6.13;100.00;99765.84;5086243;28;20032;-70
2022/12/09 08:34:59;;;;;;;44.25;21.73;;;;;;;6.08;100.00;99754.75;5089267;28;20203;-74
2022/12/09 08:37:25;;;;;;;41.67;22.00;;;;;;;6.18;100.00;99763.69;5099726;28;20020;-75
2022/12/09 08:39:50;;;;;;;45.47;23.55;;;;;;;6.17;100.00;99766.47;5095317;28;20031;-70
2022/12/09 08:42:16;;;;;;;51.70;23.75;;;;;;;6.19;100.00;99765.38;5094836;28;20529;-70
2022/12/09 08:44:41;;;;;;;42.22;23.25;;;;;;;6.27;100.00;99759.47;5092365;28;20036;-70
2022/12/09 08:47:07;;;;;;;50.17;24.45;;;;;;;6.18;100.00;99757.50;5091529;28;20032;-70
2022/12/09 08:49:32;;;;;;;46.35;23.60;;;;;;;6.24;100.00;99747.25;5105994;28;20031;-70
2022/12/09 08:51:58;;;;;;;43.47;22.30;;;;;;;6.19;100.00;99722.78;5096822;28;20471;-70
2022/12/09 08:54:23;;;;;;;48.95;22.75;;;;;;;6.22;100.00;99733.19;5096462;28;20031;-70
2022/12/09 08:56:53;;;;;;;43.85;22.02;;;;;;;6.13;100.00;99712.63;5094442;28;20400;-70
2022/12/09 08:59:19;;;;;;;42.30;21.30;;;;;;;6.22;100.00;99727.00;5091080;28;20028;-70
2022/12/09 09:01:46;;;;;;;41.92;22.15;;;;;;;6.17;100.00;99706.09;5092622;28;20052;-70
2022/12/09 09:04:15;;;;;;;42.00;21.60;;;;;;;6.19;100.00;99706.81;5092689;28;20020;-70
2022/12/09 09:06:43;;;;;;;43.60;19.95;;;;;;;6.23;100.00;99712.75;5092403;28;20031;-70
2022/12/09 09:09:11;;;;;;;36.53;19.70;;;;;;;6.33;100.00;99713.72;5093564;28;20040;-69
2022/12/09 09:11:37;;;;;;;35.83;17.88;;;;;;;6.38;100.00;99720.34;5101050;28;20035;-69
2022/12/09 09:14:04;;;;;;;36.33;18.35;;;;;;;6.29;100.00;99701.63;5094708;28;20039;-69
2022/12/09 09:16:30;;;;;;;34.80;18.58;;;;;;;6.32;100.00;99712.84;5095264;28;20044;-69
2022/12/09 09:18:55;;;;;;;35.20;17.35;;;;;;;6.24;100.00;99679.81;5103486;28;20021;-69
2022/12/09 09:21:23;;;;;;;31.52;16.30;;;;;;;6.34;100.00;99715.41;5091338;28;20028;-69
2022/12/09 09:23:49;;;;;;;35.65;17.73;;;;;;;6.32;100.00;99712.84;5095747;28;20028;-69
2022/12/09 09:26:19;;;;;;;31.60;16.33;;;;;;;6.28;100.00;99707.88;5091758;28;20031;-70
2022/12/09 09:28:46;;;;;;;30.75;15.73;;;;;;;6.34;100.00;99726.91;5091634;28;20102;-69
2022/12/09 09:31:17;;;;;;;29.38;15.82;;;;;;;6.36;100.00;99732.94;5090829;28;20062;-70
2022/12/09 09:33:43;;;;;;;34.35;17.23;;;;;;;6.38;100.00;99720.34;5092749;28;20107;-70
2022/12/09 09:36:12;;;;;;;39.30;19.02;;;;;;;6.38;100.00;99707.03;5093494;28;20116;-69
2022/12/09 09:38:38;;;;;;;39.95;19.15;;;;;;;6.37;100.00;99681.38;5091522;28;20020;-70
2022/12/09 09:41:45;;;;;;;41.85;20.05;;;;;;;6.38;100.00;99659.09;5091876;28;20488;-70
2022/12/09 09:44:43;;;;;;;43.22;19.77;;;;;;;6.39;100.00;99660.78;5067252;28;20038;-70
2022/12/09 09:47:19;;;;;;;42.22;20.35;;;;;;;6.32;100.00;99648.94;5093116;28;20079;-69
2022/12/09 09:49:51;;;;;;;40.88;20.50;;;;;;;6.34;100.00;99651.47;5091442;28;20024;-70
2022/12/09 09:52:23;;;;;;;51.25;24.40;;;;;;;6.39;100.00;99655.47;5093979;28;20024;-70
2022/12/09 09:54:50;;;;;;;46.90;23.73;;;;;;;6.29;100.00;99638.53;5077013;28;20024;-70
2022/12/09 09:57:18;;;;;;;47.47;22.25;;;;;;;6.46;100.00;99666.47;5091241;28;20512;-70
2022/12/09 09:59:43;;;;;;;45.22;23.52;;;;;;;6.43;100.00;99659.59;5091580;28;20555;-70
2022/12/09 10:02:21;;;;;;;40.38;20.60;;;;;;;6.45;100.00;99659.47;5089696;28;20035;-70
2022/12/09 10:05:11;;;;;;;46.33;21.60;;;;;;;6.41;100.00;99639.34;5089969;28;20036;-70
2022/12/09 10:07:40;;;;;;;45.80;21.95;;;;;;;6.44;100.00;99642.63;5111233;28;20031;-70
2022/12/09 10:10:41;;;;;;;42.47;21.38;;;;;;;6.44;100.00;99658.59;5111850;28;20147;-70
2022/12/09 10:13:12;;;;;;;42.72;20.10;;;;;;;6.46;100.00;99650.50;5111073;28;20049;-70
2022/12/09 10:15:46;;;;;;;41.10;20.85;;;;;;;6.40;100.00;99630.53;5110546;28;20114;-70
2022/12/09 10:18:24;;;;;;;43.00;20.48;;;;;;;6.48;100.00;99622.75;5110548;28;20487;-70
2022/12/09 10:20:50;;;;;;;43.72;20.13;;;;;;;6.44;100.00;99609.81;5109903;28;20111;-70
2022/12/09 10:23:16;;;;;;;40.85;19.63;;;;;;;6.52;100.00;99599.38;5111466;28;20031;-70
2022/12/09 10:25:55;;;;;;;42.63;21.15;;;;;;;6.52;100.00;99600.22;5111376;28;20027;-70
2022/12/09 10:28:21;;;;;;;38.80;20.10;;;;;;;6.63;100.00;99607.31;5110986;28;20047;-70
2022/12/09 10:30:48;;;;;;;42.47;19.75;;;;;;;6.53;100.00;99575.28;5111282;28;20038;-69
2022/12/09 10:33:17;;;;;;;41.03;20.27;;;;;;;6.61;100.00;99586.13;5111475;28;20032;-69
2022/12/09 10:35:43;;;;;;;40.55;19.52;;;;;;;6.54;100.00;99558.31;5111050;28;20161;-69
2022/12/09 10:38:19;;;;;;;47.55;22.20;;;;;;;6.45;100.00;99544.94;5111058;28;20108;-70
2022/12/09 10:40:45;;;;;;;41.83;20.30;;;;;;;6.58;100.00;99565.06;5109656;28;20039;-70
2022/12/09 10:43:42;;;;;;;43.33;20.88;;;;;;;6.57;100.00;99563.41;5111109;28;20032;-70
2022/12/09 10:46:14;;;;;;;46.17;21.40;;;;;;;6.57;100.00;99554.56;5110894;28;20518;-69
2022/12/09 10:48:45;;;;;;;42.72;20.33;;;;;;;6.58;100.00;99545.59;5110562;28;20027;-70
2022/12/09 10:51:29;;;;;;;44.63;21.33;;;;;;;6.60;100.00;99525.84;5110905;28;20031;-69
2022/12/09 10:54:23;;;;;;;52.38;22.42;;;;;;;6.62;100.00;99523.06;5109299;28;20058;-70
2022/12/09 10:57:10;;;;;;;49.73;23.53;;;;;;;6.65;100.00;99512.97;5110512;28;20032;-69
2022/12/09 10:59:37;;;;;;;53.70;22.88;;;;;;;6.53;100.00;99484.72;5110774;28;20108;-69
2022/12/09 11:02:08;;;;;;;54.22;24.30;;;;;;;6.71;100.00;99503.63;5109162;28;20019;-69
2022/12/09 11:04:38;;;;;;;47.45;23.30;;;;;;;6.67;100.00;99494.19;5110237;28;20401;-69
2022/12/09 11:07:06;;;;;;;51.22;24.08;;;;;;;6.74;100.00;99506.88;5110399;28;20043;-69
2022/12/09 11:09:34;;;;;;;56.50;26.35;;;;;;;6.71;100.00;99487.66;5110730;27;20035;-69
2022/12/09 11:12:03;;;;;;;50.97;23.33;;;;;;;6.79;100.00;99478.03;5110233;28;20503;-69
2022/12/09 11:14:39;;;;;;;61.67;25.90;;;;;;;6.79;100.00;99472.69;5109196;28;20430;-69
2022/12/09 11:17:23;;;;;;;62.03;26.58;;;;;;;6.75;100.00;99465.91;5108826;28;20089;-69
2022/12/09 11:20:17;;;;;;;60.28;25.10;;;;;;;6.79;100.00;99463.84;5110185;28;20473;-69
2022/12/09 11:22:44;;;;;;;58.17;25.63;;;;;;;6.72;100.00;99433.38;5110147;28;20031;-70
2022/12/09 11:25:53;;;;;;;56.92;24.80;;;;;;;6.82;100.00;99440.44;5110260;28;20395;-70